DA15 weather

Saida Airport
Saïda Province, Algeria

Public forecast

Using degrees Celsius for public forecast. Weather courtesy of forecast.io.

METAR (pilot weather report)

Closest report is Ghriss Airport, 18.6 nm (34.5 km) N. Retrieved 2019/04/20 12:00 UTC (11 minutes ago):

DAOV 201200Z 01005KT 9999 SCT026 17/09 Q1011

TAF (pilot weather forecast)

Forecast is more than 12 hours old.

Closest forecast is Ghriss Airport, 18.6 nm (34.5 km) N. Retrieved 2018/08/05 00:48 UTC (9 months ago):

TAF DAOV 052300Z 0600/0612 06010KT CAVOK BECMG 0602/0604 VRB02KT